Time;durP1;ratioP1;P1;durP2;ratioP2;P2;SDS_P1;SDS_P2;PMS_P1;PMS_P2;Temp;Humidity;BMP_temperature;BMP_pressure;BME280_temperature;BME280_humidity;BME280_pressure;Samples;Min_cycle;Max_cycle;Signal;HPM_P1;HPM_P2
2023/05/14 00:02:08;;;;;;;;;;;;;;;16.59;49.57;101709.38;7357343;19;20729;-63
2023/05/14 00:04:33;;;;;;;;;;;;;;;16.56;50.30;101705.03;7357039;19;20617;-63
2023/05/14 00:06:58;;;;;;;;;;;;;;;16.54;50.57;101706.03;7359791;19;19918;-63
2023/05/14 00:09:23;;;;;;;;;;;;;;;16.53;50.32;101704.31;7355382;19;19919;-63
2023/05/14 00:11:49;;;;;;;;;;;;;;;16.51;50.50;101706.09;7360340;19;20011;-63
2023/05/14 00:14:14;;;;;;;;;;;;;;;16.49;51.21;101698.25;7355236;19;20009;-62
2023/05/14 00:16:39;;;;;;;;;;;;;;;16.50;50.86;101704.38;7357489;19;20280;-63
2023/05/14 00:19:05;;;;;;;;;;;;;;;16.48;51.15;101696.53;7354024;19;19990;-62
2023/05/14 00:21:31;;;;;;;;;;;;;;;16.49;51.25;101697.41;7356340;19;19955;-63
2023/05/14 00:23:56;;;;;;;;;;;;;;;16.49;51.12;101692.13;7353385;19;19970;-63
2023/05/14 00:26:21;;;;;;;;;;;;;;;16.47;50.83;101688.66;7355881;19;19986;-63
2023/05/14 00:28:47;;;;;;;;;;;;;;;16.46;50.51;101692.19;7354349;19;19959;-63
2023/05/14 00:31:13;;;;;;;;;;;;;;;16.44;50.68;101684.34;7353050;19;19923;-63
2023/05/14 00:33:38;;;;;;;;;;;;;;;16.43;50.91;101687.91;7357298;19;20632;-62
2023/05/14 00:36:03;;;;;;;;;;;;;;;16.41;51.08;101675.66;7354839;19;19939;-63
2023/05/14 00:38:29;;;;;;;;;;;;;;;16.39;50.98;101674.88;7352337;19;19922;-62
2023/05/14 00:40:54;;;;;;;;;;;;;;;16.38;50.88;101673.16;7355139;19;19951;-62
2023/05/14 00:43:20;;;;;;;;;;;;;;;16.35;50.86;101664.41;7358563;19;19972;-62
2023/05/14 00:45:46;;;;;;;;;;;;;;;16.31;50.45;101662.75;7354205;19;19922;-63
2023/05/14 00:48:12;;;;;;;;;;;;;;;16.28;50.66;101668.16;7352052;19;19922;-62
2023/05/14 00:50:37;;;;;;;;;;;;;;;16.26;51.32;101659.41;7357175;19;19933;-62
2023/05/14 00:53:08;;;;;;;;;;;;;;;16.24;50.83;101649.84;7355919;19;19990;-63
2023/05/14 00:55:34;;;;;;;;;;;;;;;16.21;51.03;101652.56;7349488;19;19918;-62
2023/05/14 00:58:00;;;;;;;;;;;;;;;16.18;50.90;101644.78;7356212;19;19949;-62
2023/05/14 01:00:25;;;;;;;;;;;;;;;16.15;51.03;101645.72;7350034;19;19986;-63
2023/05/14 01:02:50;;;;;;;;;;;;;;;16.13;51.10;101642.28;7342721;19;20684;-63
2023/05/14 01:05:16;;;;;;;;;;;;;;;16.11;50.95;101641.44;7349651;19;20714;-62
2023/05/14 01:07:41;;;;;;;;;;;;;;;16.08;51.13;101633.66;7351735;19;20002;-63
2023/05/14 01:10:16;;;;;;;;;;;;;;;16.06;51.28;101640.72;7350716;19;19925;-62
2023/05/14 01:12:50;;;;;;;;;;;;;;;16.04;51.63;101632.00;7351009;19;20366;-63
2023/05/14 01:15:19;;;;;;;;;;;;;;;16.01;52.22;101632.09;7351510;19;20618;-63
2023/05/14 01:17:47;;;;;;;;;;;;;;;16.00;52.22;101627.75;7347041;19;20302;-62
2023/05/14 01:20:12;;;;;;;;;;;;;;;15.98;51.49;101624.28;7354170;19;19918;-63
2023/05/14 01:22:38;;;;;;;;;;;;;;;15.95;52.15;101613.84;7352473;19;19918;-63
2023/05/14 01:25:04;;;;;;;;;;;;;;;15.94;51.75;101614.75;7350736;19;19923;-63
2023/05/14 01:27:29;;;;;;;;;;;;;;;15.91;52.05;101610.44;7351293;19;19922;-62
2023/05/14 01:30:01;;;;;;;;;;;;;;;15.89;51.48;101595.59;7353102;19;19935;-63
2023/05/14 01:32:27;;;;;;;;;;;;;;;15.88;51.80;101599.16;7354043;19;19918;-63
2023/05/14 01:34:53;;;;;;;;;;;;;;;15.85;52.18;101594.81;7355382;19;19930;-63
2023/05/14 01:37:19;;;;;;;;;;;;;;;15.82;51.89;101595.78;7351716;19;19922;-63
2023/05/14 01:39:44;;;;;;;;;;;;;;;15.81;52.34;101594.06;7356507;19;20245;-62
2023/05/14 01:42:09;;;;;;;;;;;;;;;15.78;52.56;101588.88;7353538;19;19947;-63
2023/05/14 01:44:35;;;;;;;;;;;;;;;15.77;52.39;101592.44;7356874;19;19943;-63
2023/05/14 01:47:00;;;;;;;;;;;;;;;15.76;52.53;101584.56;7352903;19;19929;-63
2023/05/14 01:49:25;;;;;;;;;;;;;;;15.74;52.64;101587.25;7353993;19;19932;-63
2023/05/14 01:51:51;;;;;;;;;;;;;;;15.72;52.83;101578.53;7350220;19;19921;-63
2023/05/14 01:54:16;;;;;;;;;;;;;;;15.72;52.59;101582.94;7352532;19;19919;-63
2023/05/14 01:56:41;;;;;;;;;;;;;;;15.70;53.06;101588.22;7354422;19;19926;-63
2023/05/14 01:59:06;;;;;;;;;;;;;;;15.69;52.78;101583.88;7342060;19;19927;-63
2023/05/14 02:01:32;;;;;;;;;;;;;;;15.69;53.12;101589.16;7348388;19;19921;-63
2023/05/14 02:03:58;;;;;;;;;;;;;;;15.67;52.73;101590.97;7353284;19;19926;-63
2023/05/14 02:06:23;;;;;;;;;;;;;;;15.66;52.85;101589.25;7355149;19;19914;-63
2023/05/14 02:08:48;;;;;;;;;;;;;;;15.65;52.78;101586.66;7354526;19;19927;-62
2023/05/14 02:11:14;;;;;;;;;;;;;;;15.65;52.73;101584.88;7352496;19;19922;-63
2023/05/14 02:13:39;;;;;;;;;;;;;;;15.63;52.98;101578.81;7352267;19;19959;-62
2023/05/14 02:16:04;;;;;;;;;;;;;;;15.62;53.03;101586.72;7353649;19;19944;-63
2023/05/14 02:18:30;;;;;;;;;;;;;;;15.60;53.12;101583.25;7353043;19;20362;-63
2023/05/14 02:20:56;;;;;;;;;;;;;;;15.58;53.12;101581.53;7354360;19;19907;-63
2023/05/14 02:23:21;;;;;;;;;;;;;;;15.57;53.13;101578.97;7354603;19;19937;-63
2023/05/14 02:25:46;;;;;;;;;;;;;;;15.56;53.64;101579.84;7353997;19;19915;-63
2023/05/14 02:28:12;;;;;;;;;;;;;;;15.54;52.87;101579.03;7349422;19;19923;-62
2023/05/14 02:30:37;;;;;;;;;;;;;;;15.52;53.37;101568.56;7354212;19;19918;-62
2023/05/14 02:33:02;;;;;;;;;;;;;;;15.52;52.89;101575.59;7347973;19;19942;-63
2023/05/14 02:35:27;;;;;;;;;;;;;;;15.49;53.24;101567.78;7348637;19;20340;-63
2023/05/14 02:37:53;;;;;;;;;;;;;;;15.48;53.28;101568.69;7355420;19;20329;-63
2023/05/14 02:40:18;;;;;;;;;;;;;;;15.46;53.22;101568.75;7352753;19;19923;-63
2023/05/14 02:42:43;;;;;;;;;;;;;;;15.44;53.52;101564.41;7347152;19;19923;-63
2023/05/14 02:45:09;;;;;;;;;;;;;;;15.43;53.46;101567.97;7352930;19;19923;-62
2023/05/14 02:47:34;;;;;;;;;;;;;;;15.42;53.47;101566.25;7353995;19;19914;-63
2023/05/14 02:49:59;;;;;;;;;;;;;;;15.40;53.68;101560.16;7350700;19;19918;-62
2023/05/14 02:52:25;;;;;;;;;;;;;;;15.39;54.06;101568.94;7353471;19;20328;-63
2023/05/14 02:54:50;;;;;;;;;;;;;;;15.38;53.57;101560.19;7352261;19;19939;-62
2023/05/14 02:57:15;;;;;;;;;;;;;;;15.36;53.59;101558.50;7352914;19;20491;-62
2023/05/14 02:59:40;;;;;;;;;;;;;;;15.35;53.31;101556.78;7352148;19;19963;-62
2023/05/14 03:02:06;;;;;;;;;;;;;;;15.32;53.76;101553.34;7349701;19;19923;-62
2023/05/14 03:04:31;;;;;;;;;;;;;;;15.30;53.33;101555.13;7333358;19;19925;-63
2023/05/14 03:06:56;;;;;;;;;;;;;;;15.28;53.24;101556.97;7352032;19;20705;-62
2023/05/14 03:09:21;;;;;;;;;;;;;;;15.26;53.43;101557.94;7351137;19;20394;-63
2023/05/14 03:11:47;;;;;;;;;;;;;;;15.23;53.47;101553.59;7355940;19;19953;-62
2023/05/14 03:14:12;;;;;;;;;;;;;;;15.20;53.68;101553.69;7352203;19;19935;-63
2023/05/14 03:16:38;;;;;;;;;;;;;;;15.19;53.21;101554.59;7348356;19;20538;-62
2023/05/14 03:19:04;;;;;;;;;;;;;;;15.17;53.93;101558.19;7351928;19;19982;-63
2023/05/14 03:21:30;;;;;;;;;;;;;;;15.14;53.62;101559.13;7312726;19;20474;-63
2023/05/14 03:23:55;;;;;;;;;;;;;;;15.12;54.06;101554.81;7345067;19;19930;-63
2023/05/14 03:26:20;;;;;;;;;;;;;;;15.10;54.29;101556.63;7350710;19;19918;-63
2023/05/14 03:28:46;;;;;;;;;;;;;;;15.07;54.78;101557.56;7350062;19;19930;-62
2023/05/14 03:31:11;;;;;;;;;;;;;;;15.05;54.29;101551.47;7343820;19;20478;-63
2023/05/14 03:33:36;;;;;;;;;;;;;;;15.04;54.31;101552.38;7346797;19;19934;-62
2023/05/14 03:36:02;;;;;;;;;;;;;;;15.02;53.75;101556.84;7330431;19;19922;-62
2023/05/14 03:38:27;;;;;;;;;;;;;;;14.99;54.27;101554.28;7348097;19;20029;-62
2023/05/14 03:40:52;;;;;;;;;;;;;;;14.98;54.40;101549.94;7346938;19;19926;-63
2023/05/14 03:43:17;;;;;;;;;;;;;;;14.96;54.18;101546.50;7341735;19;19978;-62
2023/05/14 03:45:43;;;;;;;;;;;;;;;14.60;54.13;101488.75;7348702;19;19922;-63
2023/05/14 03:48:08;;;;;;;;;;;;;;;14.94;54.15;101540.41;7348724;19;19977;-63
2023/05/14 03:50:33;;;;;;;;;;;;;;;14.93;54.70;101543.94;7341828;19;20374;-63
2023/05/14 03:52:58;;;;;;;;;;;;;;;14.93;54.67;101522.91;7351247;19;19934;-63
2023/05/14 03:55:24;;;;;;;;;;;;;;;14.92;54.55;101521.19;7351442;19;20731;-63
2023/05/14 03:57:49;;;;;;;;;;;;;;;14.92;54.47;101526.44;7349480;19;19956;-63
2023/05/14 04:00:15;;;;;;;;;;;;;;;14.92;54.74;101516.78;7351198;19;19922;-63
2023/05/14 04:02:40;;;;;;;;;;;;;;;14.92;54.98;101522.03;7353121;19;19946;-63
2023/05/14 04:05:06;;;;;;;;;;;;;;;14.92;55.28;101518.53;7358030;19;20254;-63
2023/05/14 04:07:31;;;;;;;;;;;;;;;14.93;55.15;101522.91;7358104;19;20536;-62
2023/05/14 04:09:56;;;;;;;;;;;;;;;14.93;55.04;101512.38;7357298;19;20466;-63
2023/05/14 04:12:21;;;;;;;;;;;;;;;14.93;55.46;101512.38;7358474;19;20255;-63
2023/05/14 04:14:47;;;;;;;;;;;;;;;14.94;54.84;101519.34;7355212;19;19915;-63
2023/05/14 04:17:12;;;;;;;;;;;;;;;14.94;55.09;101519.34;7351703;19;20462;-62
2023/05/14 04:19:38;;;;;;;;;;;;;;;14.95;55.41;101513.19;7357860;19;19919;-63
2023/05/14 04:22:03;;;;;;;;;;;;;;;14.95;55.54;101507.91;7356569;19;19922;-63
2023/05/14 04:24:28;;;;;;;;;;;;;;;14.94;55.33;101514.94;7356000;19;19943;-62
2023/05/14 04:26:54;;;;;;;;;;;;;;;14.96;55.08;101504.41;7356239;19;19919;-62
2023/05/14 04:29:19;;;;;;;;;;;;;;;14.96;55.14;101497.38;7355304;19;19910;-63
2023/05/14 04:31:45;;;;;;;;;;;;;;;14.96;55.37;101497.38;7357524;19;19931;-62
2023/05/14 04:34:10;;;;;;;;;;;;;;;14.98;55.70;101502.59;7357745;19;19939;-63
2023/05/14 04:36:35;;;;;;;;;;;;;;;14.98;55.30;101500.81;7356461;19;20012;-63
2023/05/14 04:39:01;;;;;;;;;;;;;;;14.99;55.76;101501.69;7354764;19;20263;-63
2023/05/14 04:41:26;;;;;;;;;;;;;;;15.00;55.47;101490.25;7353528;19;19999;-62
2023/05/14 04:43:54;;;;;;;;;;;;;;;15.00;55.74;101492.88;7356662;19;20495;-63
2023/05/14 04:46:19;;;;;;;;;;;;;;;15.02;55.83;101491.09;7357259;19;20328;-63
2023/05/14 04:48:44;;;;;;;;;;;;;;;15.03;55.90;101498.06;7356573;19;19929;-63
2023/05/14 04:51:10;;;;;;;;;;;;;;;15.05;55.59;101506.75;7353952;19;20563;-63
2023/05/14 04:53:35;;;;;;;;;;;;;;;15.05;55.09;101506.75;7355230;19;20245;-62
2023/05/14 04:56:00;;;;;;;;;;;;;;;15.05;55.34;101499.75;7355466;19;19914;-63
2023/05/14 04:58:27;;;;;;;;;;;;;;;15.06;55.37;101503.25;7356114;19;19930;-62
2023/05/14 05:00:52;;;;;;;;;;;;;;;15.07;55.37;101504.97;7356342;19;20344;-62
2023/05/14 05:03:18;;;;;;;;;;;;;;;15.07;55.60;101499.69;7352628;19;19934;-62
2023/05/14 05:05:43;;;;;;;;;;;;;;;15.08;55.65;101504.06;7356554;19;19930;-63
2023/05/14 05:08:10;;;;;;;;;;;;;;;15.08;55.77;101495.31;7353731;19;20775;-63
2023/05/14 05:10:35;;;;;;;;;;;;;;;15.08;55.76;101496.16;7354735;19;20629;-63
2023/05/14 05:13:00;;;;;;;;;;;;;;;15.08;55.52;101496.16;7354878;19;20047;-63
2023/05/14 05:15:25;;;;;;;;;;;;;;;15.10;55.52;101491.72;7353405;19;20329;-63
2023/05/14 05:17:51;;;;;;;;;;;;;;;15.11;56.10;101488.19;7357068;19;19923;-63
2023/05/14 05:20:16;;;;;;;;;;;;;;;15.12;55.86;101481.16;7351002;19;19927;-63
2023/05/14 05:22:41;;;;;;;;;;;;;;;15.13;55.94;101467.09;7354757;19;19927;-62
2023/05/14 05:25:07;;;;;;;;;;;;;;;15.14;56.13;101456.50;7350859;19;19970;-63
2023/05/14 05:27:33;;;;;;;;;;;;;;;15.16;55.82;101472.28;7356264;19;20473;-63
2023/05/14 05:30:00;;;;;;;;;;;;;;;15.17;55.75;101464.34;7350040;19;20443;-63
2023/05/14 05:32:25;;;;;;;;;;;;;;;15.18;55.83;101460.78;7353758;19;19937;-63
2023/05/14 05:34:51;;;;;;;;;;;;;;;15.20;56.43;101463.34;7352628;19;20462;-62
2023/05/14 05:37:16;;;;;;;;;;;;;;;15.19;56.42;101451.97;7355671;19;19915;-63
2023/05/14 05:39:41;;;;;;;;;;;;;;;15.21;56.00;101447.56;7353328;19;19918;-63
2023/05/14 05:42:07;;;;;;;;;;;;;;;15.22;56.00;101449.28;7356657;19;20277;-63
2023/05/14 05:44:32;;;;;;;;;;;;;;;15.23;56.43;101448.34;7349875;19;20455;-63
2023/05/14 05:46:57;;;;;;;;;;;;;;;15.25;55.94;101435.16;7353759;19;19919;-63
2023/05/14 05:49:23;;;;;;;;;;;;;;;15.25;56.11;101438.63;7349852;19;19934;-63
2023/05/14 05:51:48;;;;;;;;;;;;;;;15.28;56.57;101445.59;7353768;19;19915;-62
2023/05/14 05:54:13;;;;;;;;;;;;;;;15.02;56.57;101394.63;7352956;19;19918;-63
2023/05/14 05:56:38;;;;;;;;;;;;;;;15.31;56.77;101446.38;7356852;19;19918;-62
2023/05/14 05:59:04;;;;;;;;;;;;;;;15.32;56.54;101434.94;7342986;19;19939;-62
2023/05/14 06:01:29;;;;;;;;;;;;;;;15.36;56.68;101432.19;7355242;19;19958;-62
2023/05/14 06:03:54;;;;;;;;;;;;;;;15.40;56.77;101433.81;7353011;19;19983;-63
2023/05/14 06:06:20;;;;;;;;;;;;;;;15.41;56.82;101431.16;7354961;19;19923;-63
2023/05/14 06:08:45;;;;;;;;;;;;;;;15.44;56.55;101436.31;7356098;19;19925;-63
2023/05/14 06:11:11;;;;;;;;;;;;;;;15.47;56.72;101419.56;7351559;19;19931;-62
2023/05/14 06:13:36;;;;;;;;;;;;;;;15.50;56.93;101430.00;7354709;19;19933;-63
2023/05/14 06:16:01;;;;;;;;;;;;;;;15.52;56.74;101433.44;7355351;19;19938;-63
2023/05/14 06:18:27;;;;;;;;;;;;;;;15.54;56.51;101436.88;7353141;19;19978;-62
2023/05/14 06:20:52;;;;;;;;;;;;;;;15.56;56.53;101443.84;7352659;19;19946;-63
2023/05/14 06:23:17;;;;;;;;;;;;;;;15.58;56.61;101446.41;7352258;19;19974;-62
2023/05/14 06:25:43;;;;;;;;;;;;;;;15.60;56.59;101441.09;7352841;19;19930;-63
2023/05/14 06:28:08;;;;;;;;;;;;;;;15.62;56.27;101439.28;7346753;19;20250;-63
2023/05/14 06:30:33;;;;;;;;;;;;;;;15.63;56.81;101430.47;7355136;19;19933;-62
2023/05/14 06:32:58;;;;;;;;;;;;;;;15.64;56.83;101435.72;7348820;19;20320;-62
2023/05/14 06:35:24;;;;;;;;;;;;;;;15.66;56.23;101428.66;7352317;19;19929;-63
2023/05/14 06:37:49;;;;;;;;;;;;;;;15.67;56.48;101429.50;7349552;19;20382;-63
2023/05/14 06:40:14;;;;;;;;;;;;;;;15.70;55.93;101438.16;7353675;19;19933;-63
2023/05/14 06:42:40;;;;;;;;;;;;;;;15.72;55.73;101436.34;7352631;19;21560;-63
2023/05/14 06:45:05;;;;;;;;;;;;;;;15.75;55.97;101424.84;7352293;19;19930;-63
2023/05/14 06:47:31;;;;;;;;;;;;;;;15.76;56.04;101432.69;7354603;19;20310;-63
2023/05/14 06:49:57;;;;;;;;;;;;;;;15.77;55.99;101429.16;7354253;19;19923;-63
2023/05/14 06:52:23;;;;;;;;;;;;;;;15.81;56.42;101432.53;7352073;19;19923;-62
2023/05/14 06:54:48;;;;;;;;;;;;;;;15.85;56.34;101420.97;7346522;19;19935;-63
2023/05/14 06:57:13;;;;;;;;;;;;;;;15.89;56.73;101422.59;7352115;19;19922;-63
2023/05/14 06:59:38;;;;;;;;;;;;;;;15.94;56.47;101422.47;7330017;19;21226;-63
2023/05/14 07:02:04;;;;;;;;;;;;;;;16.00;56.88;101419.63;7353442;19;19950;-63
2023/05/14 07:04:29;;;;;;;;;;;;;;;16.07;56.05;101415.88;7354444;19;19930;-63
2023/05/14 07:06:54;;;;;;;;;;;;;;;16.12;55.82;101403.41;7355529;19;20328;-63
2023/05/14 07:09:20;;;;;;;;;;;;;;;16.17;56.34;101412.00;7351814;19;19963;-63
2023/05/14 07:11:46;;;;;;;;;;;;;;;16.23;55.79;101405.66;7353397;19;19911;-63
2023/05/14 07:14:11;;;;;;;;;;;;;;;16.26;56.34;101411.66;7354305;19;19938;-63
2023/05/14 07:16:36;;;;;;;;;;;;;;;16.30;55.73;101408.00;7348867;19;19933;-63
2023/05/14 07:19:02;;;;;;;;;;;;;;;16.35;55.88;101411.34;7353906;19;19918;-63
2023/05/14 07:21:27;;;;;;;;;;;;;;;16.38;55.97;101406.91;7350579;19;20462;-63
2023/05/14 07:23:52;;;;;;;;;;;;;;;16.42;55.80;101416.41;7353856;19;19943;-63
2023/05/14 07:26:17;;;;;;;;;;;;;;;16.43;55.76;101418.16;7347074;19;20730;-62
2023/05/14 07:28:43;;;;;;;;;;;;;;;16.45;56.28;101421.56;7351881;19;20462;-63
2023/05/14 07:31:08;;;;;;;;;;;;;;;16.47;55.87;101425.88;7351187;19;19940;-63
2023/05/14 07:33:37;;;;;;;;;;;;;;;16.49;56.37;101428.47;7354431;19;19930;-63
2023/05/14 07:36:02;;;;;;;;;;;;;;;16.52;56.39;101425.69;7353272;19;20243;-63
2023/05/14 07:38:27;;;;;;;;;;;;;;;16.55;56.27;101429.09;7360520;19;19927;-63
2023/05/14 07:40:53;;;;;;;;;;;;;;;16.57;56.04;101421.13;7361037;19;19906;-63
2023/05/14 07:43:18;;;;;;;;;;;;;;;16.59;56.23;101421.94;7356777;19;19951;-63
2023/05/14 07:45:44;;;;;;;;;;;;;;;16.60;56.17;101415.75;7344247;19;20680;-63
2023/05/14 07:48:10;;;;;;;;;;;;;;;16.62;56.18;101413.91;7357899;19;20576;-63
2023/05/14 07:50:35;;;;;;;;;;;;;;;16.64;56.40;101425.28;7358063;19;19915;-63
2023/05/14 07:53:01;;;;;;;;;;;;;;;16.66;56.10;101419.94;7358194;19;19922;-63
2023/05/14 07:55:26;;;;;;;;;;;;;;;16.67;56.15;101422.50;7351827;19;20257;-63
2023/05/14 07:57:51;;;;;;;;;;;;;;;16.72;56.33;101423.22;7359196;19;19922;-63
2023/05/14 08:00:16;;;;;;;;;;;;;;;16.74;56.67;101418.78;7355195;19;20187;-63
2023/05/14 08:02:42;;;;;;;;;;;;;;;16.78;56.46;101414.25;7359821;19;19947;-63
2023/05/14 08:05:07;;;;;;;;;;;;;;;16.83;56.61;101420.22;7355098;19;19919;-63
2023/05/14 08:07:33;;;;;;;;;;;;;;;16.88;56.67;101415.66;7355293;19;19942;-63
2023/05/14 08:09:58;;;;;;;;;;;;;;;16.91;56.61;101415.50;7360592;19;19923;-63
2023/05/14 08:12:24;;;;;;;;;;;;;;;16.95;56.15;101411.00;7356707;19;19922;-62
2023/05/14 08:14:49;;;;;;;;;;;;;;;16.97;56.14;101409.13;7361330;19;19919;-63
2023/05/14 08:17:15;;;;;;;;;;;;;;;16.98;56.17;101400.28;7357436;19;19976;-63
2023/05/14 08:19:40;;;;;;;;;;;;;;;17.01;56.31;101408.09;7361212;19;19922;-63
2023/05/14 08:22:06;;;;;;;;;;;;;;;17.03;56.13;101407.16;7357139;19;19915;-63
2023/05/14 08:24:31;;;;;;;;;;;;;;;17.08;56.36;101406.94;7360096;19;19938;-63
2023/05/14 08:26:56;;;;;;;;;;;;;;;17.10;56.42;101400.69;7352630;19;19927;-63
2023/05/14 08:29:22;;;;;;;;;;;;;;;17.14;56.32;101411.16;7356541;19;19943;-63
2023/05/14 08:31:48;;;;;;;;;;;;;;;17.18;56.37;101408.31;7356965;19;19938;-62
2023/05/14 08:34:13;;;;;;;;;;;;;;;17.20;56.37;101401.22;7359812;19;19918;-63
2023/05/14 08:36:39;;;;;;;;;;;;;;;17.23;56.09;101403.72;7355642;19;20260;-63
2023/05/14 08:39:06;;;;;;;;;;;;;;;17.26;56.40;101398.31;7359496;19;20522;-63
2023/05/14 08:41:32;;;;;;;;;;;;;;;17.32;56.26;101398.06;7357939;19;19918;-63
2023/05/14 08:43:57;;;;;;;;;;;;;;;17.30;56.47;101389.38;7357400;19;19922;-63
2023/05/14 08:46:23;;;;;;;;;;;;;;;17.45;56.15;101395.81;7352796;19;19938;-63
2023/05/14 08:48:53;;;;;;;;;;;;;;;17.52;56.05;101393.78;7350512;19;19925;-63
2023/05/14 08:51:18;;;;;;;;;;;;;;;17.62;56.44;101397.75;7357667;19;19926;-63
2023/05/14 08:53:43;;;;;;;;;;;;;;;17.73;56.36;101406.13;7349048;19;19926;-63
2023/05/14 08:56:09;;;;;;;;;;;;;;;17.84;56.75;101397.75;7358422;19;19915;-63
2023/05/14 08:58:34;;;;;;;;;;;;;;;17.91;56.55;101398.38;7354184;19;19918;-63
2023/05/14 09:00:59;;;;;;;;;;;;;;;17.95;56.18;101399.97;7354014;19;19923;-63
2023/05/14 09:03:25;;;;;;;;;;;;;;;17.95;56.39;101394.69;7355616;19;19930;-63
2023/05/14 09:05:51;;;;;;;;;;;;;;;17.94;56.09;101400.88;7349342;19;20253;-63
2023/05/14 09:08:16;;;;;;;;;;;;;;;17.89;56.23;101396.66;7359142;19;19934;-63
2023/05/14 09:10:41;;;;;;;;;;;;;;;17.91;56.35;101398.38;7357429;19;19945;-63
2023/05/14 09:13:08;;;;;;;;;;;;;;;17.91;56.50;101393.09;7356070;19;19935;-63
2023/05/14 09:15:35;;;;;;;;;;;;;;;17.91;56.55;101385.16;7346983;19;19922;-63
2023/05/14 09:18:00;;;;;;;;;;;;;;;17.92;56.78;101386.88;7350617;19;20351;-63
2023/05/14 09:20:27;;;;;;;;;;;;;;;17.95;56.62;101384.97;7357475;19;19939;-63
2023/05/14 09:22:53;;;;;;;;;;;;;;;18.01;57.04;101389.13;7354838;19;19922;-63
2023/05/14 09:25:18;;;;;;;;;;;;;;;18.06;57.19;101387.16;7360510;19;19925;-63
2023/05/14 09:27:45;;;;;;;;;;;;;;;18.08;56.87;101390.59;7354575;19;19911;-63
2023/05/14 09:30:11;;;;;;;;;;;;;;;18.13;57.34;101383.31;7352708;19;20458;-63
2023/05/14 09:32:37;;;;;;;;;;;;;;;18.17;57.29;101384.91;7354853;19;19929;-63
2023/05/14 09:35:10;;;;;;;;;;;;;;;18.25;57.55;101382.81;7356741;19;20922;-63
2023/05/14 09:37:35;;;;;;;;;;;;;;;18.35;57.56;101381.47;7354953;19;20407;-63
2023/05/14 09:40:05;;;;;;;;;;;;;;;18.42;57.45;101389.97;7358749;19;19921;-63
2023/05/14 09:42:30;;;;;;;;;;;;;;;18.49;57.56;101393.19;7350020;19;19929;-63
2023/05/14 09:44:55;;;;;;;;;;;;;;;18.52;56.95;101390.44;7350417;19;19922;-63
2023/05/14 09:47:21;;;;;;;;;;;;;;;18.53;56.86;101385.06;7356262;19;19926;-63
2023/05/14 09:49:47;;;;;;;;;;;;;;;18.54;56.66;101393.84;7358685;19;19919;-63
2023/05/14 09:52:12;;;;;;;;;;;;;;;18.51;56.57;101391.38;7351851;19;19930;-63
2023/05/14 09:54:38;;;;;;;;;;;;;;;18.46;56.44;101390.72;7355078;19;19926;-63
2023/05/14 09:57:04;;;;;;;;;;;;;;;18.40;56.16;101394.50;7355706;19;19947;-63
2023/05/14 09:59:29;;;;;;;;;;;;;;;18.36;56.34;101384.97;7345793;19;20446;-63
2023/05/14 10:01:56;;;;;;;;;;;;;;;18.32;56.58;101389.53;7350643;19;19930;-62
2023/05/14 10:04:21;;;;;;;;;;;;;;;18.29;56.91;101394.94;7332827;19;19971;-63
2023/05/14 10:06:50;;;;;;;;;;;;;;;18.28;56.79;101390.56;7352990;19;20676;-62
2023/05/14 10:09:17;;;;;;;;;;;;;;;18.27;56.93;101386.22;7353522;19;20043;-63
2023/05/14 10:11:44;;;;;;;;;;;;;;;18.25;56.88;101392.47;7357012;19;19933;-63
2023/05/14 10:14:28;;;;;;;;;;;;;;;18.26;56.95;101394.22;7351842;19;19934;-63
2023/05/14 10:16:55;;;;;;;;;;;;;;;18.29;57.26;101399.38;7355895;19;19915;-63
2023/05/14 10:19:22;;;;;;;;;;;;;;;18.33;57.66;101396.53;7349396;19;19942;-63
2023/05/14 10:21:52;;;;;;;;;;;;;;;18.36;57.77;101391.13;7354134;19;19981;-63
2023/05/14 10:24:18;;;;;;;;;;;;;;;18.40;57.63;101381.28;7355362;19;19930;-63
2023/05/14 10:26:43;;;;;;;;;;;;;;;18.45;57.81;101387.22;7356540;19;19922;-63
2023/05/14 10:29:10;;;;;;;;;;;;;;;18.51;57.73;101386.94;7354580;19;19932;-63
2023/05/14 10:31:49;;;;;;;;;;;;;;;18.54;57.65;101388.56;7353779;19;20018;-63
2023/05/14 10:34:33;;;;;;;;;;;;;;;18.58;57.56;101398.09;7353217;19;19923;-63
2023/05/14 10:37:17;;;;;;;;;;;;;;;18.58;57.78;101379.56;7354662;19;20335;-63
2023/05/14 10:39:49;;;;;;;;;;;;;;;18.59;57.46;101381.28;7335679;19;20790;-63
2023/05/14 10:42:31;;;;;;;;;;;;;;;18.58;57.13;101382.22;7345038;19;21028;-63
2023/05/14 10:44:57;;;;;;;;;;;;;;;18.57;57.35;101383.16;7342667;19;19922;-63
2023/05/14 10:47:26;;;;;;;;;;;;;;;18.53;57.38;101377.13;7343297;19;20029;-62
2023/05/14 10:49:53;;;;;;;;;;;;;;;18.52;57.24;101379.84;7341627;19;20744;-63
2023/05/14 10:52:19;;;;;;;;;;;;;;;18.54;57.54;101383.28;7345398;19;19915;-63
2023/05/14 10:54:47;;;;;;;;;;;;;;;18.55;57.65;101384.97;7340716;19;19926;-63
2023/05/14 10:57:12;;;;;;;;;;;;;;;18.59;57.89;101382.13;7343989;19;19974;-63
2023/05/14 10:59:40;;;;;;;;;;;;;;;18.65;58.21;101383.63;7344880;19;19911;-63
2023/05/14 11:02:17;;;;;;;;;;;;;;;18.71;58.21;101370.19;7343713;19;19931;-63
2023/05/14 11:04:49;;;;;;;;;;;;;;;18.82;58.04;101373.19;7341700;19;19926;-63
2023/05/14 11:07:15;;;;;;;;;;;;;;;18.90;57.97;101378.97;7344846;19;19922;-63
2023/05/14 11:09:40;;;;;;;;;;;;;;;18.97;57.80;101384.84;7346232;19;19922;-63
2023/05/14 11:12:07;;;;;;;;;;;;;;;19.03;57.40;101396.94;7344742;19;20466;-63
2023/05/14 11:14:32;;;;;;;;;;;;;;;19.02;57.49;101397.88;7348076;19;20742;-63
2023/05/14 11:16:57;;;;;;;;;;;;;;;19.00;56.67;101397.06;7350529;19;19931;-63
2023/05/14 11:19:22;;;;;;;;;;;;;;;18.92;56.39;101400.94;7350550;19;20576;-63
2023/05/14 11:21:48;;;;;;;;;;;;;;;18.86;56.86;101395.09;7347720;19;19922;-63
2023/05/14 11:24:13;;;;;;;;;;;;;;;18.78;56.79;101402.50;7351324;19;19922;-63
2023/05/14 11:26:39;;;;;;;;;;;;;;;18.73;56.62;101405.38;7349317;19;20009;-63
2023/05/14 11:29:04;;;;;;;;;;;;;;;18.69;56.78;101403.78;7349115;19;19922;-63
2023/05/14 11:31:29;;;;;;;;;;;;;;;18.67;56.40;101400.31;7346696;19;19925;-63
2023/05/14 11:33:54;;;;;;;;;;;;;;;18.65;56.75;101397.75;7349500;19;20465;-63
2023/05/14 11:36:20;;;;;;;;;;;;;;;18.66;57.17;101398.59;7351610;19;19927;-63
2023/05/14 11:38:47;;;;;;;;;;;;;;;18.69;57.37;101402.91;7349357;19;19939;-63
2023/05/14 11:41:13;;;;;;;;;;;;;;;18.72;57.01;101406.28;7349976;19;19922;-63
2023/05/14 11:43:38;;;;;;;;;;;;;;;18.74;56.81;101407.06;7349088;19;19918;-63
2023/05/14 11:46:04;;;;;;;;;;;;;;;18.72;56.88;101419.53;7346608;19;19911;-63
2023/05/14 11:48:31;;;;;;;;;;;;;;;18.71;56.49;101419.59;7350985;19;19914;-63
2023/05/14 11:50:57;;;;;;;;;;;;;;;18.70;56.71;101420.50;7346608;19;19952;-63
2023/05/14 11:53:25;;;;;;;;;;;;;;;18.70;56.86;101425.78;7350682;19;19978;-63
2023/05/14 11:55:51;;;;;;;;;;;;;;;18.70;56.71;101416.06;7344783;19;19919;-62
2023/05/14 11:58:17;;;;;;;;;;;;;;;18.73;56.91;101425.66;7349904;19;19923;-63
2023/05/14 12:00:48;;;;;;;;;;;;;;;18.76;56.74;101421.09;7345341;19;19927;-63
2023/05/14 12:03:14;;;;;;;;;;;;;;;18.79;56.33;101418.31;7347372;19;20395;-62
2023/05/14 12:05:39;;;;;;;;;;;;;;;18.79;56.31;101413.00;7348173;19;19930;-63
2023/05/14 12:08:21;;;;;;;;;;;;;;;18.47;56.24;101372.13;7348485;19;19926;-63
2023/05/14 12:10:46;;;;;;;;;;;;;;;18.70;56.10;101423.16;7347900;19;19919;-63
2023/05/14 12:13:14;;;;;;;;;;;;;;;18.58;55.81;101428.03;7346981;19;19930;-63
2023/05/14 12:15:39;;;;;;;;;;;;;;;18.48;55.60;101437.31;7348849;19;19919;-63
2023/05/14 12:18:07;;;;;;;;;;;;;;;18.38;55.95;101442.13;7349255;19;20746;-63
2023/05/14 12:20:32;;;;;;;;;;;;;;;18.29;55.95;101444.31;7347744;19;19929;-63
2023/05/14 12:22:58;;;;;;;;;;;;;;;18.22;55.72;101451.66;7346014;19;19918;-63
2023/05/14 12:25:24;;;;;;;;;;;;;;;18.14;55.73;101448.47;7346632;19;19923;-63
2023/05/14 12:27:49;;;;;;;;;;;;;;;17.86;55.74;101417.06;7340467;19;19922;-63
2023/05/14 12:30:14;;;;;;;;;;;;;;;17.99;56.23;101449.13;7341099;19;19933;-63